Time;durP1;ratioP1;P1;durP2;ratioP2;P2;SDS_P1;SDS_P2;PMS_P1;PMS_P2;Temp;Humidity;BMP_temperature;BMP_pressure;BME280_temperature;BME280_humidity;BME280_pressure;Samples;Min_cycle;Max_cycle;Signal;HPM_P1;HPM_P2
2022/12/15 00:40:57;;;;;;;;;;;;;;;18.21;37.40;100258.22;5115229;28;19962;-52
2022/12/15 00:43:23;;;;;;;;;;;;;;;18.21;37.34;100269.25;5135688;27;20463;-51
2022/12/15 00:48:34;;;;;;;;;;;;;;;18.19;37.29;100258.53;5115419;28;19931;-51
2022/12/15 00:51:00;;;;;;;;;;;;;;;18.20;37.40;100257.41;5139095;27;19927;-52
2022/12/15 01:21:02;;;;;;;;;;;;;;;18.18;37.58;100273.41;5114254;28;20007;-52
2022/12/15 01:23:28;;;;;;;;;;;;;;;18.19;37.59;100288.00;5134211;27;19968;-52
2022/12/15 01:25:54;;;;;;;;;;;;;;;18.18;37.41;100286.38;5161996;27;20330;-51
2022/12/15 01:28:20;;;;;;;;;;;;;;;18.18;37.38;100284.44;5164414;27;19962;-53
2022/12/15 01:30:46;;;;;;;;;;;;;;;18.17;37.42;100293.78;5150022;27;19976;-52
2022/12/15 01:33:12;;;;;;;;;;;;;;;18.18;37.49;100292.72;5150502;27;20375;-49
2022/12/15 01:35:37;;;;;;;;;;;;;;;18.18;37.58;100302.91;5150730;27;19958;-52
2022/12/15 01:38:03;;;;;;;;;;;;;;;18.19;37.35;100305.38;5150696;27;19929;-52
2022/12/15 01:40:44;;;;;;;;;;;;;;;18.18;37.49;100302.91;5132016;27;19927;-52
2022/12/15 01:43:12;;;;;;;;;;;;;;;18.18;37.53;100303.72;5133250;27;19954;-50
2022/12/15 01:45:47;;;;;;;;;;;;;;;18.17;37.53;100313.09;5131936;27;20015;-52
2022/12/15 01:48:14;;;;;;;;;;;;;;;18.17;37.36;100310.34;5151071;27;19959;-53
2022/12/15 01:50:41;;;;;;;;;;;;;;;18.17;37.32;100309.50;5150192;27;20367;-51
2022/12/15 01:53:07;;;;;;;;;;;;;;;18.17;37.59;100313.09;5131718;27;19959;-52
2022/12/15 01:55:32;;;;;;;;;;;;;;;18.16;37.35;100311.44;5131691;27;19954;-52
2022/12/15 01:58:00;;;;;;;;;;;;;;;18.17;37.58;100321.34;5150575;27;19923;-49
2022/12/15 02:00:25;;;;;;;;;;;;;;;18.17;37.43;100323.28;5149804;27;19971;-50
2022/12/15 02:02:51;;;;;;;;;;;;;;;18.17;37.42;100320.53;5131181;27;19929;-52
2022/12/15 02:05:17;;;;;;;;;;;;;;;18.17;37.51;100320.53;5149993;27;19923;-52
2022/12/15 02:07:42;;;;;;;;;;;;;;;18.17;37.45;100328.81;5150740;27;19931;-50
2022/12/15 02:10:09;;;;;;;;;;;;;;;18.16;37.46;100324.41;5149789;27;19927;-49
2022/12/15 02:12:54;;;;;;;;;;;;;;;18.16;37.32;100327.97;5145017;27;20393;-53
2022/12/15 02:15:24;;;;;;;;;;;;;;;18.16;37.36;100322.47;5131793;27;19955;-52
2022/12/15 02:18:09;;;;;;;;;;;;;;;18.17;37.52;100323.28;5150278;27;20261;-52
2022/12/15 02:20:43;;;;;;;;;;;;;;;18.16;37.37;100319.72;5134456;27;20002;-52
2022/12/15 02:23:28;;;;;;;;;;;;;;;18.16;37.43;100324.41;5150021;27;20018;-51
2022/12/15 02:26:15;;;;;;;;;;;;;;;18.16;37.35;100316.16;5137332;27;19923;-51
2022/12/15 02:29:00;;;;;;;;;;;;;;;18.15;37.55;100320.84;5145567;27;19966;-51
2022/12/15 02:31:58;;;;;;;;;;;;;;;18.16;37.58;100324.41;5134245;27;19973;-52
2022/12/15 02:34:26;;;;;;;;;;;;;;;18.16;37.52;100325.22;5134345;27;20018;-51
2022/12/15 02:36:56;;;;;;;;;;;;;;;18.15;37.39;100325.53;5131347;27;20418;-50
2022/12/15 02:39:22;;;;;;;;;;;;;;;18.16;37.45;100332.69;5149773;27;20273;-53
2022/12/15 02:41:50;;;;;;;;;;;;;;;18.15;37.43;100331.84;5131013;27;20431;-51
2022/12/15 02:44:18;;;;;;;;;;;;;;;18.15;37.38;100337.38;5131289;27;19977;-53
2022/12/15 02:46:47;;;;;;;;;;;;;;;18.15;37.36;100340.13;5150307;27;20413;-52
2022/12/15 02:49:16;;;;;;;;;;;;;;;18.15;37.47;100344.81;5149461;27;19978;-53
2022/12/15 02:51:45;;;;;;;;;;;;;;;18.15;37.34;100355.84;5150104;27;19950;-52
2022/12/15 02:54:30;;;;;;;;;;;;;;;18.15;37.57;100353.91;5149174;27;19984;-50
2022/12/15 02:57:16;;;;;;;;;;;;;;;18.15;37.57;100366.88;5134478;27;19970;-52
2022/12/15 02:59:43;;;;;;;;;;;;;;;18.14;37.35;100371.56;5134197;27;19966;-52
2022/12/15 03:02:09;;;;;;;;;;;;;;;18.14;37.45;100365.22;5130218;27;19968;-52
2022/12/15 03:04:35;;;;;;;;;;;;;;;18.14;37.40;100376.25;5149254;27;19927;-52
2022/12/15 03:07:03;;;;;;;;;;;;;;;18.14;37.50;100373.50;5131504;27;19934;-53
2022/12/15 03:09:29;;;;;;;;;;;;;;;18.14;37.43;100365.22;5130556;27;19954;-50
2022/12/15 03:11:54;;;;;;;;;;;;;;;18.15;37.44;100378.72;5131105;27;20026;-50
2022/12/15 03:14:20;;;;;;;;;;;;;;;18.14;37.36;100371.56;5148882;27;19971;-51
2022/12/15 03:16:45;;;;;;;;;;;;;;;18.14;37.43;100385.34;5149630;27;19931;-50
2022/12/15 03:19:11;;;;;;;;;;;;;;;18.14;37.37;100381.75;5148900;27;20398;-53
2022/12/15 03:21:37;;;;;;;;;;;;;;;18.14;37.38;100381.75;5149232;27;19927;-52
2022/12/15 03:24:02;;;;;;;;;;;;;;;18.13;37.46;100375.41;5148724;27;19924;-53
2022/12/15 03:26:28;;;;;;;;;;;;;;;18.14;37.39;100376.25;5149121;27;20455;-53
2022/12/15 03:28:53;;;;;;;;;;;;;;;18.13;37.25;100378.16;5149118;27;19923;-50
2022/12/15 03:31:19;;;;;;;;;;;;;;;18.14;37.38;100382.59;5148828;27;19949;-52
2022/12/15 03:33:44;;;;;;;;;;;;;;;18.14;37.39;100384.53;5149067;27;19923;-52
2022/12/15 03:36:10;;;;;;;;;;;;;;;18.14;37.34;100382.59;5149275;27;19927;-52
2022/12/15 03:38:35;;;;;;;;;;;;;;;18.13;37.29;100378.16;5148941;27;20483;-53
2022/12/15 03:41:01;;;;;;;;;;;;;;;18.13;37.41;100383.66;5148765;27;19923;-53
2022/12/15 03:43:27;;;;;;;;;;;;;;;18.13;37.56;100389.19;5148955;27;19927;-51
2022/12/15 03:45:52;;;;;;;;;;;;;;;18.13;37.44;100391.94;5148465;27;19923;-53
2022/12/15 03:48:18;;;;;;;;;;;;;;;18.14;37.40;100392.78;5149285;27;19927;-51
2022/12/15 03:50:43;;;;;;;;;;;;;;;18.13;37.06;100396.63;5149027;27;19923;-51
2022/12/15 03:53:09;;;;;;;;;;;;;;;18.12;37.40;100393.06;5149004;27;19923;-52
2022/12/15 03:55:35;;;;;;;;;;;;;;;18.13;37.46;100396.63;5147980;27;20355;-53
2022/12/15 03:58:01;;;;;;;;;;;;;;;18.13;37.42;100396.63;5130655;27;19923;-48
2022/12/15 04:00:27;;;;;;;;;;;;;;;18.12;37.54;100398.56;5130530;27;20195;-53
2022/12/15 04:02:52;;;;;;;;;;;;;;;18.12;37.27;100395.81;5149186;27;20373;-52
2022/12/15 04:05:20;;;;;;;;;;;;;;;18.12;37.41;100401.31;5148347;27;19930;-52
2022/12/15 04:07:46;;;;;;;;;;;;;;;18.12;37.42;100395.00;5132774;27;19970;-52
2022/12/15 04:10:12;;;;;;;;;;;;;;;18.12;37.55;100397.75;5151957;27;19927;-51
2022/12/15 04:12:38;;;;;;;;;;;;;;;18.12;37.34;100395.00;5157474;27;20328;-52
2022/12/15 04:15:05;;;;;;;;;;;;;;;18.12;37.39;100392.22;5160318;27;19978;-52
2022/12/15 04:17:30;;;;;;;;;;;;;;;18.12;37.45;100384.78;5152265;27;19972;-50
2022/12/15 04:20:11;;;;;;;;;;;;;;;18.12;37.66;100395.00;5151988;27;20353;-52
2022/12/15 04:22:37;;;;;;;;;;;;;;;18.13;37.25;100399.38;5152123;27;19942;-51
2022/12/15 05:31:59;;;;;;;;;;;;;;;18.10;37.38;100439.38;5126512;27;19923;-53
2022/12/15 05:34:14;;;;;;;;;;;;;;;18.10;37.33;100438.56;5135425;27;19979;-51
2022/12/15 05:36:39;;;;;;;;;;;;;;;18.09;37.40;100443.25;5151106;27;20008;-53
2022/12/15 05:39:05;;;;;;;;;;;;;;;18.09;37.40;100445.16;5150151;27;20371;-53
2022/12/15 05:41:30;;;;;;;;;;;;;;;18.09;37.26;100448.75;5151009;27;20114;-52
2022/12/15 05:43:56;;;;;;;;;;;;;;;18.09;37.41;100451.50;5150790;27;19937;-52
2022/12/15 05:46:22;;;;;;;;;;;;;;;18.09;37.42;100456.19;5150787;27;19931;-52
2022/12/15 05:48:47;;;;;;;;;;;;;;;18.09;37.44;100462.53;5150199;27;19927;-52
2022/12/15 05:51:13;;;;;;;;;;;;;;;18.09;37.41;100465.28;5150541;27;20083;-52
2022/12/15 05:53:39;;;;;;;;;;;;;;;18.08;37.52;100466.38;5150432;27;20443;-51
2022/12/15 05:56:05;;;;;;;;;;;;;;;18.09;37.56;100470.81;5131422;27;19970;-53
2022/12/15 05:58:31;;;;;;;;;;;;;;;18.09;37.55;100472.72;5150441;27;19950;-51
2022/12/15 06:01:05;;;;;;;;;;;;;;;18.08;37.33;100466.38;5150198;27;20276;-52
2022/12/15 06:03:30;;;;;;;;;;;;;;;18.10;37.52;100468.88;5149888;27;20018;-52
2022/12/15 06:05:59;;;;;;;;;;;;;;;18.09;37.43;100464.44;5149905;27;19931;-52
2022/12/15 06:08:25;;;;;;;;;;;;;;;18.09;37.41;100467.19;5149832;27;19970;-52
2022/12/15 06:10:53;;;;;;;;;;;;;;;18.09;37.35;100468.06;5150099;27;20003;-51
2022/12/15 06:13:19;;;;;;;;;;;;;;;18.09;37.37;100468.06;5134367;27;20433;-52
2022/12/15 06:15:53;;;;;;;;;;;;;;;18.08;37.39;100458.13;5146593;27;19923;-53
2022/12/15 06:18:18;;;;;;;;;;;;;;;18.09;37.40;100447.91;5130247;27;19948;-50
2022/12/15 06:20:44;;;;;;;;;;;;;;;18.09;37.38;100457.03;5137416;27;19923;-51
2022/12/15 06:23:14;;;;;;;;;;;;;;;18.08;37.41;100462.81;5142264;27;19924;-49
2022/12/15 06:25:40;;;;;;;;;;;;;;;18.08;37.34;100469.13;5133357;27;19923;-50
2022/12/15 06:28:05;;;;;;;;;;;;;;;18.09;37.60;100464.44;5135776;27;19975;-52
2022/12/15 06:30:31;;;;;;;;;;;;;;;18.08;37.58;100466.38;5144022;27;19932;-53
2022/12/15 06:32:57;;;;;;;;;;;;;;;18.08;37.51;100466.38;5134881;27;19927;-52
2022/12/15 06:35:22;;;;;;;;;;;;;;;18.08;37.46;100465.56;5132224;27;19927;-52
2022/12/15 06:37:48;;;;;;;;;;;;;;;18.08;37.47;100471.06;5127083;27;20271;-51
2022/12/15 06:40:13;;;;;;;;;;;;;;;18.02;37.36;100470.28;5128350;27;19934;-54
2022/12/15 06:42:39;;;;;;;;;;;;;;;18.05;37.54;100473.31;5133133;27;19930;-52
2022/12/15 06:45:05;;;;;;;;;;;;;;;18.07;37.42;100459.22;5132654;27;19930;-51
2022/12/15 06:47:30;;;;;;;;;;;;;;;18.09;37.67;100468.06;5133615;27;19934;-52
2022/12/15 06:49:56;;;;;;;;;;;;;;;18.09;37.67;100470.81;5139975;27;20344;-53
2022/12/15 06:52:21;;;;;;;;;;;;;;;18.10;37.57;100474.38;5142437;27;19923;-49
2022/12/15 06:54:47;;;;;;;;;;;;;;;18.10;37.57;100474.38;5137422;27;20383;-49
2022/12/15 06:57:12;;;;;;;;;;;;;;;18.11;37.62;100481.53;5128244;27;19932;-48
2022/12/15 06:59:38;;;;;;;;;;;;;;;18.12;37.56;100472.97;5130885;27;19927;-51
2022/12/15 07:02:04;;;;;;;;;;;;;;;18.11;37.79;100474.09;5121311;27;20984;-50
2022/12/15 07:04:31;;;;;;;;;;;;;;;18.12;37.68;100472.16;5114421;27;19923;-51
2022/12/15 07:06:56;;;;;;;;;;;;;;;18.11;37.72;100476.84;5128715;27;19958;-51
2022/12/15 07:09:24;;;;;;;;;;;;;;;18.12;37.69;100489.50;5127951;27;19927;-51
2022/12/15 07:11:51;;;;;;;;;;;;;;;18.12;37.58;100486.75;5125819;27;20017;-52
2022/12/15 07:14:16;;;;;;;;;;;;;;;18.14;37.73;100494.75;5131889;27;19971;-51
2022/12/15 07:16:42;;;;;;;;;;;;;;;18.14;37.72;100495.56;5128290;27;19939;-51
2022/12/15 07:19:10;;;;;;;;;;;;;;;18.14;37.70;100498.31;5133263;27;19927;-50
2022/12/15 07:21:35;;;;;;;;;;;;;;;18.15;37.52;100499.16;5130682;27;20394;-53
2022/12/15 07:24:01;;;;;;;;;;;;;;;18.15;37.55;100501.91;5129328;27;19927;-53
2022/12/15 07:26:28;;;;;;;;;;;;;;;18.16;37.54;100498.03;5141380;27;19927;-54
2022/12/15 07:28:54;;;;;;;;;;;;;;;18.16;37.50;100503.53;5133062;27;20004;-54
2022/12/15 07:31:20;;;;;;;;;;;;;;;18.17;37.56;100507.94;5131495;27;20487;-55
2022/12/15 07:33:47;;;;;;;;;;;;;;;18.16;37.50;100507.13;5111780;27;19930;-54
2022/12/15 07:36:12;;;;;;;;;;;;;;;18.16;37.59;100512.63;5128857;27;19955;-55
2022/12/15 07:38:38;;;;;;;;;;;;;;;18.16;37.59;100511.81;5136090;27;19930;-55
2022/12/15 07:41:04;;;;;;;;;;;;;;;18.17;37.54;100517.03;5133496;27;19927;-56
2022/12/15 07:43:29;;;;;;;;;;;;;;;18.17;37.60;100519.78;5118286;27;20391;-55
2022/12/15 07:45:56;;;;;;;;;;;;;;;18.18;37.61;100531.66;5143714;27;19927;-56
2022/12/15 07:48:22;;;;;;;;;;;;;;;18.17;37.51;100525.28;5138434;27;19958;-55
2022/12/15 07:50:49;;;;;;;;;;;;;;;18.18;37.62;100523.41;5137602;27;20429;-54
2022/12/15 07:53:15;;;;;;;;;;;;;;;18.17;37.56;100522.53;5142467;27;19959;-55
2022/12/15 07:55:41;;;;;;;;;;;;;;;18.18;37.68;100523.41;5133991;27;19930;-55
2022/12/15 07:58:27;;;;;;;;;;;;;;;18.18;37.71;100535.25;5107918;27;19984;-53
2022/12/15 08:00:52;;;;;;;;;;;;;;;18.17;37.72;100533.56;5130350;27;20338;-52
2022/12/15 08:03:18;;;;;;;;;;;;;;;18.18;37.68;100526.97;5119601;27;19927;-54
2022/12/15 08:05:44;;;;;;;;;;;;;;;18.18;37.72;100520.63;5119430;27;19927;-51
2022/12/15 08:08:10;;;;;;;;;;;;;;;18.17;37.32;100527.22;5110831;27;20359;-53
2022/12/15 08:10:40;;;;;;;;;;;;;;;18.19;37.48;100525.03;5121154;27;19923;-56
2022/12/15 08:13:06;;;;;;;;;;;;;;;18.18;37.61;100521.47;5120649;27;20000;-54
2022/12/15 08:15:34;;;;;;;;;;;;;;;18.17;37.47;100528.06;5121963;27;20072;-53
2022/12/15 08:18:00;;;;;;;;;;;;;;;18.18;37.37;100521.47;5125755;27;19954;-53
2022/12/15 08:20:25;;;;;;;;;;;;;;;18.18;37.41;100524.22;5107801;27;21413;-54
2022/12/15 08:22:51;;;;;;;;;;;;;;;18.19;37.46;100522.28;5130158;27;19923;-55
2022/12/15 08:25:16;;;;;;;;;;;;;;;18.19;37.57;100522.28;5133222;27;20279;-53
2022/12/15 08:27:42;;;;;;;;;;;;;;;18.18;37.57;100524.22;5129917;27;20298;-54
2022/12/15 08:30:08;;;;;;;;;;;;;;;18.19;37.46;100525.03;5132283;27;19927;-55
2022/12/15 08:32:33;;;;;;;;;;;;;;;18.19;37.62;100534.13;5135678;27;20309;-54
2022/12/15 08:35:00;;;;;;;;;;;;;;;18.20;37.54;100538.53;5133773;27;19931;-54
2022/12/15 08:37:25;;;;;;;;;;;;;;;18.20;37.70;100543.22;5128143;27;19923;-54
2022/12/15 08:39:51;;;;;;;;;;;;;;;18.20;37.61;100541.28;5125523;27;19931;-55
2022/12/15 08:42:16;;;;;;;;;;;;;;;18.21;37.51;100547.59;5128121;27;20168;-55
2022/12/15 08:44:42;;;;;;;;;;;;;;;18.22;37.75;100560.28;5130228;27;19950;-54
2022/12/15 08:47:08;;;;;;;;;;;;;;;18.21;37.64;100558.63;5122923;27;19923;-52
2022/12/15 08:49:33;;;;;;;;;;;;;;;18.21;37.73;100562.22;5119515;27;20011;-52
2022/12/15 08:51:59;;;;;;;;;;;;;;;18.22;37.75;100563.03;5132258;27;20735;-55
2022/12/15 08:54:24;;;;;;;;;;;;;;;18.22;37.68;100563.03;5132375;27;19923;-54
2022/12/15 08:56:50;;;;;;;;;;;;;;;18.22;37.66;100560.28;5136747;27;19931;-54
2022/12/15 08:59:15;;;;;;;;;;;;;;;18.22;37.66;100550.09;5129885;27;19923;-53
2022/12/15 09:01:42;;;;;;;;;;;;;;;18.24;37.74;100563.59;5136641;27;19927;-55
2022/12/15 09:04:07;;;;;;;;;;;;;;;18.24;37.57;100566.34;5131255;27;20356;-54
2022/12/15 09:06:34;;;;;;;;;;;;;;;18.24;37.67;100569.09;5131246;27;19934;-54
2022/12/15 09:09:00;;;;;;;;;;;;;;;18.24;37.67;100574.63;5117895;27;19966;-54
2022/12/15 09:11:26;;;;;;;;;;;;;;;18.25;37.71;100570.75;5128415;27;19927;-54
2022/12/15 09:13:51;;;;;;;;;;;;;;;18.24;37.74;100577.38;5121605;27;20427;-54
2022/12/15 09:16:17;;;;;;;;;;;;;;;18.25;37.58;100581.78;5124042;27;19931;-54
2022/12/15 09:18:44;;;;;;;;;;;;;;;18.24;37.63;100580.94;5106587;27;19935;-54
2022/12/15 09:21:10;;;;;;;;;;;;;;;18.25;37.66;100599.13;5132059;27;19923;-54
2022/12/15 09:23:36;;;;;;;;;;;;;;;18.24;37.66;100589.22;5114945;27;20008;-54
2022/12/15 09:26:03;;;;;;;;;;;;;;;18.23;37.63;100598.59;5105777;27;20371;-57
2022/12/15 09:28:30;;;;;;;;;;;;;;;18.20;37.46;100601.09;5128344;27;19988;-53
2022/12/15 09:31:04;;;;;;;;;;;;;;;18.23;36.73;100595.03;5129394;27;19980;-53
2022/12/15 09:33:30;;;;;;;;;;;;;;;18.23;37.49;100606.88;5109976;27;19927;-56
2022/12/15 09:35:56;;;;;;;;;;;;;;;18.25;37.46;100609.34;5126766;27;19923;-55
2022/12/15 09:38:21;;;;;;;;;;;;;;;18.24;37.55;100605.75;5101923;27;19934;-52
2022/12/15 09:40:47;;;;;;;;;;;;;;;18.24;37.52;100602.19;5126669;27;20333;-54
2022/12/15 09:43:18;;;;;;;;;;;;;;;18.25;37.50;100614.84;5114934;27;19927;-54
2022/12/15 09:46:02;;;;;;;;;;;;;;;18.25;37.72;100618.44;5130925;27;20205;-54
2022/12/15 09:48:29;;;;;;;;;;;;;;;18.26;37.39;100622.00;5132227;27;20175;-51
2022/12/15 09:50:54;;;;;;;;;;;;;;;18.27;37.44;100632.75;5108284;27;19927;-54
2022/12/15 09:53:20;;;;;;;;;;;;;;;18.27;37.55;100631.94;5104376;27;20327;-56
2022/12/15 09:56:09;;;;;;;;;;;;;;;18.27;37.39;100632.75;5112663;27;20404;-55
2022/12/15 09:58:39;;;;;;;;;;;;;;;18.27;37.48;100623.69;5135082;27;19988;-53
2022/12/15 10:01:09;;;;;;;;;;;;;;;18.27;37.54;100618.97;5130691;27;19934;-54
2022/12/15 10:03:54;;;;;;;;;;;;;;;18.28;37.51;100623.38;5130266;27;20006;-54
2022/12/15 10:06:23;;;;;;;;;;;;;;;18.29;37.55;100629.72;5119452;27;19948;-54
2022/12/15 10:08:59;;;;;;;;;;;;;;;18.26;37.37;100617.34;5132020;27;20195;-56
2022/12/15 10:11:33;;;;;;;;;;;;;;;18.29;37.35;100624.19;5120724;27;19923;-54
2022/12/15 10:14:03;;;;;;;;;;;;;;;18.29;37.55;100624.19;5131348;27;19960;-54
2022/12/15 10:16:48;;;;;;;;;;;;;;;18.27;37.58;100630.00;5133503;27;20382;-52
2022/12/15 10:19:17;;;;;;;;;;;;;;;18.29;37.32;100622.28;5142625;27;19959;-55
2022/12/15 10:21:42;;;;;;;;;;;;;;;18.29;37.48;100621.44;5134729;27;20030;-52
2022/12/15 10:24:17;;;;;;;;;;;;;;;18.30;37.54;100620.34;5128715;27;19931;-54
2022/12/15 10:27:06;;;;;;;;;;;;;;;18.30;37.56;100614.81;5121566;27;19922;-54
2022/12/15 10:29:52;;;;;;;;;;;;;;;18.29;37.29;100621.44;5133819;27;19939;-54
2022/12/15 10:32:19;;;;;;;;;;;;;;;18.30;37.19;100614.81;5128188;27;19931;-54
2022/12/15 10:34:44;;;;;;;;;;;;;;;18.29;36.74;100622.28;5109134;27;19974;-57
2022/12/15 10:37:13;;;;;;;;;;;;;;;18.25;36.28;100623.94;5131938;27;20346;-61
2022/12/15 10:39:40;;;;;;;;;;;;;;;18.34;37.36;100626.94;5122694;27;19934;-54
2022/12/15 10:42:21;;;;;;;;;;;;;;;18.40;37.95;100623.06;5130400;27;19974;-58
2022/12/15 10:44:48;;;;;;;;;;;;;;;18.42;37.61;100637.38;5115544;27;19927;-49
2022/12/15 10:47:18;;;;;;;;;;;;;;;18.43;37.93;100625.22;5123175;27;19968;-47
2022/12/15 10:49:43;;;;;;;;;;;;;;;18.47;38.25;100631.84;5125213;27;20022;-60
2022/12/15 10:52:15;;;;;;;;;;;;;;;18.47;39.00;100628.25;5133433;27;19927;-61
2022/12/15 10:54:43;;;;;;;;;;;;;;;18.54;39.16;100632.34;5131190;27;20007;-60
2022/12/15 10:57:18;;;;;;;;;;;;;;;18.55;39.58;100619.41;5120863;27;21674;-66
2022/12/15 10:59:43;;;;;;;;;;;;;;;18.58;39.90;100621.59;5102247;27;19985;-62
2022/12/15 11:02:25;;;;;;;;;;;;;;;18.56;39.84;100619.09;5116551;27;19927;-57
2022/12/15 11:04:55;;;;;;;;;;;;;;;18.11;31.31;100619.31;5137529;27;19923;-59
2022/12/15 11:07:20;;;;;;;;;;;;;;;17.47;32.02;100623.56;5111996;27;19966;-57
2022/12/15 11:09:46;;;;;;;;;;;;;;;18.03;36.20;100621.53;5124654;27;20393;-57
2022/12/15 11:12:51;;;;;;;;;;;;;;;18.21;36.58;100619.28;5131780;27;19932;-57
2022/12/15 11:17:57;;;;;;;;;;;;;;;18.35;36.92;100614.81;5170675;27;19925;-55
2022/12/15 11:20:26;;;;;;;;;;;;;;;18.33;33.63;100614.25;5143716;27;20379;-54
2022/12/15 11:22:52;;;;;;;;;;;;;;;18.35;34.15;100617.56;5132483;27;19979;-55
2022/12/15 11:25:20;;;;;;;;;;;;;;;18.37;34.47;100622.81;5126489;27;19927;-55
2022/12/15 11:27:45;;;;;;;;;;;;;;;18.36;35.50;100605.44;5149401;27;19923;-55
2022/12/15 11:30:13;;;;;;;;;;;;;;;18.37;34.63;100598.81;5158230;27;19934;-55
2022/12/15 11:32:40;;;;;;;;;;;;;;;18.39;35.31;100596.56;5128888;27;19930;-54
2022/12/15 11:35:14;;;;;;;;;;;;;;;18.40;37.44;100594.66;5150970;27;19977;-55
2022/12/15 11:37:45;;;;;;;;;;;;;;;18.39;37.23;100602.09;5142114;27;19966;-55
2022/12/15 11:40:32;;;;;;;;;;;;;;;18.39;36.59;100593.81;5143284;27;19927;-55
2022/12/15 11:43:00;;;;;;;;;;;;;;;18.39;34.68;100585.56;5123201;27;19950;-54
2022/12/15 11:45:33;;;;;;;;;;;;;;;18.39;35.14;100593.00;5149276;27;19962;-54
2022/12/15 11:48:19;;;;;;;;;;;;;;;18.37;34.43;100587.78;5146984;27;19981;-54
2022/12/15 11:50:51;;;;;;;;;;;;;;;18.38;34.58;100592.19;5132629;27;21474;-55
2022/12/15 11:53:36;;;;;;;;;;;;;;;18.38;34.66;100591.34;5128487;27;20046;-55
2022/12/15 11:56:05;;;;;;;;;;;;;;;18.35;33.19;100589.16;5133381;27;20077;-55
2022/12/15 11:58:51;;;;;;;;;;;;;;;18.37;33.57;100595.22;5141923;27;20473;-55
2022/12/15 12:01:37;;;;;;;;;;;;;;;18.38;34.13;100585.84;5132803;27;19966;-55
2022/12/15 12:04:22;;;;;;;;;;;;;;;18.40;34.70;100592.75;5115131;27;19931;-55
2022/12/15 12:06:53;;;;;;;;;;;;;;;18.39;34.38;100593.00;5113516;27;20016;-54
2022/12/15 12:09:23;;;;;;;;;;;;;;;18.40;34.45;100589.97;5112075;27;19927;-55
2022/12/15 12:11:53;;;;;;;;;;;;;;;18.39;34.34;100591.06;5133879;27;20013;-55
2022/12/15 12:14:24;;;;;;;;;;;;;;;18.40;34.30;100594.66;5107008;27;19981;-55
2022/12/15 12:17:07;;;;;;;;;;;;;;;18.39;35.56;100593.81;5125832;27;20017;-54
2022/12/15 12:19:35;;;;;;;;;;;;;;;18.38;34.04;100588.59;5134755;27;19983;-55
2022/12/15 12:22:05;;;;;;;;;;;;;;;18.39;34.28;100591.06;5130472;27;20402;-55
2022/12/15 12:24:36;;;;;;;;;;;;;;;18.39;36.63;100588.31;5123807;27;20606;-54
2022/12/15 12:27:10;;;;;;;;;;;;;;;18.43;37.03;100591.31;5107613;27;20305;-55
2022/12/15 12:29:39;;;;;;;;;;;;;;;18.43;35.79;100588.56;5106778;27;19970;-55
2022/12/15 12:32:08;;;;;;;;;;;;;;;18.44;36.52;100590.25;5107553;27;19950;-55
2022/12/15 12:34:38;;;;;;;;;;;;;;;18.44;37.25;100584.72;5103022;28;20862;-54
2022/12/15 12:37:12;;;;;;;;;;;;;;;18.44;37.17;100579.22;5107959;28;20062;-55
2022/12/15 12:39:37;;;;;;;;;;;;;;;18.43;36.52;100572.84;5104069;27;20023;-55
2022/12/15 12:42:08;;;;;;;;;;;;;;;18.42;35.64;100568.44;5114498;27;19927;-55
2022/12/15 12:44:35;;;;;;;;;;;;;;;18.42;37.16;100571.19;5115917;27;19974;-55
2022/12/15 12:47:19;;;;;;;;;;;;;;;18.43;35.74;100569.28;5101335;27;20216;-55
2022/12/15 12:49:46;;;;;;;;;;;;;;;18.43;37.24;100563.75;5112845;27;19974;-55
2022/12/15 12:52:17;;;;;;;;;;;;;;;18.42;37.34;100568.44;5118521;27;19927;-55
2022/12/15 12:54:45;;;;;;;;;;;;;;;18.42;37.39;100567.63;5117477;27;19955;-55
2022/12/15 12:57:13;;;;;;;;;;;;;;;18.41;37.47;100550.25;5112046;28;19967;-54
2022/12/15 12:59:39;;;;;;;;;;;;;;;18.42;37.43;100545.56;5112394;27;19938;-54
2022/12/15 13:05:00;;;;;;;;;;;;;;;18.42;37.46;100534.53;5170731;27;19929;-55
2022/12/15 13:07:33;;;;;;;;;;;;;;;18.41;37.39;100525.44;5149531;27;19926;-55
2022/12/15 13:12:46;;;;;;;;;;;;;;;18.42;37.42;100512.47;5160541;27;20298;-56
2022/12/15 13:18:10;;;;;;;;;;;;;;;18.41;37.20;100497.06;5153358;27;19930;-55
2022/12/15 13:20:36;;;;;;;;;;;;;;;18.40;37.43;100484.38;5115061;27;20215;-54
2022/12/15 13:23:21;;;;;;;;;;;;;;;18.40;37.22;100490.72;5136079;27;20030;-55
2022/12/15 13:26:05;;;;;;;;;;;;;;;18.40;37.27;100479.69;5116384;27;19969;-55
2022/12/15 13:33:52;;;;;;;;;;;;;;;18.36;34.78;100486.06;5148663;27;20428;-54
2022/12/15 13:36:38;;;;;;;;;;;;;;;16.64;31.58;100492.56;5130809;27;19950;-54
2022/12/15 13:41:47;;;;;;;;;;;;;;;17.98;35.94;100475.53;5168473;27;19929;-54
2022/12/15 13:44:36;;;;;;;;;;;;;;;18.14;35.80;100476.28;5143058;27;19931;-54
2022/12/15 13:47:05;;;;;;;;;;;;;;;18.21;35.92;100474.00;5159414;27;19973;-54
2022/12/15 13:49:32;;;;;;;;;;;;;;;18.25;35.85;100464.06;5159386;27;19926;-55
2022/12/15 13:51:58;;;;;;;;;;;;;;;18.30;36.01;100463.22;5145997;27;20424;-55
2022/12/15 13:54:26;;;;;;;;;;;;;;;18.32;36.12;100457.44;5160099;27;19995;-54
2022/12/15 13:57:12;;;;;;;;;;;;;;;18.33;36.00;100459.06;5153864;27;20411;-54
2022/12/15 13:59:41;;;;;;;;;;;;;;;18.34;36.13;100458.78;5144404;27;19973;-55
2022/12/15 14:02:26;;;;;;;;;;;;;;;18.36;36.05;100458.50;5164043;27;19927;-54
2022/12/15 14:05:13;;;;;;;;;;;;;;;18.36;36.31;100455.75;5135838;27;19930;-54
2022/12/15 14:07:39;;;;;;;;;;;;;;;18.37;36.22;100451.88;5130507;27;19977;-54
2022/12/15 14:10:06;;;;;;;;;;;;;;;17.05;30.84;100451.31;5145279;27;20593;-54
2022/12/15 14:12:31;;;;;;;;;;;;;;;17.71;33.12;100453.06;5125556;27;19951;-54
2022/12/15 14:14:57;;;;;;;;;;;;;;;18.00;35.16;100450.44;5136388;27;19934;-54
2022/12/15 14:17:24;;;;;;;;;;;;;;;18.14;35.05;100453.41;5144075;27;20018;-54
2022/12/15 14:19:51;;;;;;;;;;;;;;;18.23;35.22;100455.28;5150817;27;20300;-54
2022/12/15 14:22:20;;;;;;;;;;;;;;;18.27;35.24;100441.75;5135493;27;19967;-54
2022/12/15 14:24:57;;;;;;;;;;;;;;;18.29;35.46;100440.34;5151441;27;20402;-54
2022/12/15 14:27:23;;;;;;;;;;;;;;;18.33;35.37;100437.00;5119722;27;20046;-54
2022/12/15 14:29:49;;;;;;;;;;;;;;;18.31;34.46;100429.03;5117417;27;20075;-54
2022/12/15 14:32:16;;;;;;;;;;;;;;;18.31;34.20;100434.56;5141342;27;19944;-54
2022/12/15 14:34:41;;;;;;;;;;;;;;;18.31;35.10;100420.78;5139754;27;20037;-54
2022/12/15 14:37:09;;;;;;;;;;;;;;;18.29;33.83;100421.03;5132588;27;19924;-55
2022/12/15 14:39:36;;;;;;;;;;;;;;;18.25;32.46;100411.69;5122674;27;19932;-54
2022/12/15 14:42:02;;;;;;;;;;;;;;;18.30;33.44;100413.59;5138007;27;19970;-54
2022/12/15 14:44:29;;;;;;;;;;;;;;;18.28;32.29;100405.63;5116760;27;19923;-53
2022/12/15 14:47:05;;;;;;;;;;;;;;;18.25;32.25;100411.69;5121462;27;19934;-54
2022/12/15 14:49:32;;;;;;;;;;;;;;;18.30;33.66;100402.56;5139350;27;19954;-55
2022/12/15 14:51:59;;;;;;;;;;;;;;;18.29;31.99;100398.16;5114220;28;20539;-54
2022/12/15 14:54:45;;;;;;;;;;;;;;;18.33;33.94;100406.69;5112217;28;20356;-54
2022/12/15 14:57:13;;;;;;;;;;;;;;;18.36;35.57;100408.88;5114356;28;19966;-54
2022/12/15 14:59:39;;;;;;;;;;;;;;;18.37;35.74;100421.53;5108351;28;19967;-54
2022/12/15 15:02:10;;;;;;;;;;;;;;;18.37;35.85;100416.84;5114466;28;19955;-54
2022/12/15 15:04:36;;;;;;;;;;;;;;;18.38;35.68;100414.91;5130905;28;20283;-54
2022/12/15 15:07:02;;;;;;;;;;;;;;;18.38;35.38;100414.91;5127406;28;19923;-54
2022/12/15 15:09:29;;;;;;;;;;;;;;;18.38;35.79;100412.16;5110564;28;19978;-54
2022/12/15 15:11:55;;;;;;;;;;;;;;;16.76;26.85;100423.59;5111310;28;19971;-48
2022/12/15 15:14:23;;;;;;;;;;;;;;;16.20;28.69;100426.31;5130218;28;19959;-54
2022/12/15 15:17:08;;;;;;;;;;;;;;;17.24;29.07;100429.56;5130787;28;19930;-54
2022/12/15 15:19:35;;;;;;;;;;;;;;;17.69;29.81;100436.78;5114301;28;19923;-54
2022/12/15 15:22:05;;;;;;;;;;;;;;;17.87;31.37;100432.59;5112745;28;20382;-54